Terminal Aerodrome Forecast
Issued by NWS

Home | Current Version | Previous Version | Text Only | Print | Product List | Glossary On
Versions: 1 2 3 4 5 6 7 8 9 10 11 12 13 14 15
000
FTUS46 KMTR 310142 AAA
TAFMRY
TAF AMD
KMRY 310142Z 3102/3124 29012KT P6SM SCT016
      TEMPO 3102/3103 BKN016
     FM310300 25008KT P6SM FEW016
     FM310500 VRB03KT P6SM FEW007
     FM311700 27010KT P6SM SKC=

USA.gov is the U.S. government's official web portal to all federal, state and local government web resources and services.